createdAt,value
2022-09-20T05:27:47.881Z,23.07
2022-09-20T05:30:42.388Z,19.97
2022-09-20T05:33:09.130Z,19.03
2022-09-20T05:35:49.106Z,20.97
2022-09-20T05:38:42.879Z,18.60
2022-09-20T05:41:56.953Z,16.83
2022-09-20T05:44:43.793Z,18.10
2022-09-20T05:47:23.498Z,19.13
2022-09-20T05:50:16.643Z,22.03
2022-09-20T05:53:24.319Z,23.37
2022-09-20T05:56:27.142Z,20.80
2022-09-20T05:59:21.490Z,18.67
2022-09-20T06:02:25.882Z,17.20
2022-09-20T06:05:01.714Z,18.97
2022-09-20T06:07:34.414Z,23.60
2022-09-20T06:10:15.913Z,18.73
2022-09-20T06:12:54.028Z,18.90
2022-09-20T06:15:41.701Z,21.60
2022-09-20T06:18:32.133Z,21.80
2022-09-20T06:21:43.223Z,23.27
2022-09-20T06:24:40.930Z,22.97
2022-09-20T06:27:22.072Z,22.40
2022-09-20T06:29:54.629Z,22.77
2022-09-20T06:32:21.424Z,19.53
2022-09-20T06:34:50.028Z,25.07
2022-09-20T06:37:45.107Z,22.93
2022-09-20T06:40:58.016Z,24.57
2022-09-20T06:43:24.942Z,27.73
2022-09-20T06:45:51.997Z,27.13
2022-09-20T06:48:19.323Z,25.33
2022-09-20T06:50:46.219Z,26.70
2022-09-20T06:53:18.548Z,28.60
2022-09-20T06:55:47.075Z,26.53
2022-09-20T06:58:13.975Z,26.40
2022-09-20T07:00:41.081Z,29.13
2022-09-20T07:03:08.560Z,25.77
2022-09-20T07:05:36.343Z,26.93
2022-09-20T07:08:03.462Z,26.13
2022-09-20T07:10:30.879Z,31.27
2022-09-20T07:13:02.451Z,23.67
2022-09-20T07:15:32.368Z,27.10
2022-09-20T07:18:02.505Z,29.80
2022-09-20T07:20:29.307Z,30.17
2022-09-20T07:22:56.097Z,28.23
2022-09-20T07:25:23.305Z,26.17
2022-09-20T07:27:50.921Z,29.37
2022-09-20T07:30:19.727Z,28.97
2022-09-20T07:32:46.649Z,27.13
2022-09-20T07:35:13.826Z,29.97
2022-09-20T07:37:41.446Z,25.80
2022-09-20T07:40:10.198Z,24.03
2022-09-20T07:42:37.315Z,24.77
2022-09-20T07:45:04.867Z,23.10
2022-09-20T07:47:35.339Z,23.10
2022-09-20T07:50:02.988Z,24.03
2022-09-20T07:52:29.994Z,24.33
2022-09-20T07:54:56.807Z,28.23
2022-09-20T07:57:23.823Z,25.30
2022-09-20T07:59:50.644Z,28.23
2022-09-20T08:02:17.848Z,21.97
2022-09-20T08:04:44.731Z,21.77
2022-09-20T08:07:12.955Z,22.30
2022-09-20T08:09:39.725Z,22.10
2022-09-20T08:14:57.950Z,18.53
2022-09-20T08:17:27.203Z,21.13
2022-09-20T08:19:55.330Z,21.63
2022-09-20T08:22:23.269Z,24.70
2022-09-20T08:24:51.924Z,23.13
2022-09-20T08:27:19.027Z,25.90
2022-09-20T08:29:45.840Z,22.33
2022-09-20T08:32:13.438Z,23.50
2022-09-20T08:34:40.713Z,23.10
2022-09-20T08:37:07.504Z,24.47
2022-09-20T08:42:28.157Z,20.23
2022-09-20T08:45:05.015Z,21.10
2022-09-20T08:47:36.728Z,22.27
2022-09-20T08:50:11.620Z,24.30
2022-09-20T08:52:40.761Z,23.17
2022-09-20T08:55:21.929Z,21.57
2022-09-20T08:57:55.154Z,22.60
2022-09-20T09:00:32.006Z,22.87
2022-09-20T09:03:03.831Z,20.70
2022-09-20T09:05:44.816Z,18.57
2022-09-20T09:08:39.543Z,17.37
2022-09-20T09:11:12.460Z,19.50
2022-09-20T09:14:35.353Z,21.80
2022-09-20T09:17:02.623Z,20.13
2022-09-20T09:19:54.300Z,21.77
2022-09-20T09:22:25.255Z,21.20
2022-09-20T09:25:24.363Z,22.00
2022-09-20T09:27:59.115Z,21.77
2022-09-20T09:30:34.489Z,20.20
2022-09-20T09:33:26.858Z,24.63
2022-09-20T09:35:54.516Z,28.43
2022-09-20T09:38:24.684Z,22.57
2022-09-20T09:40:59.629Z,22.73
2022-09-20T09:43:33.610Z,21.10
2022-09-20T09:46:21.569Z,20.60
2022-09-20T09:49:05.481Z,20.03
2022-09-20T09:51:34.107Z,20.57
2022-09-20T09:54:01.999Z,22.70
2022-09-20T09:56:42.167Z,21.73
2022-09-20T09:59:10.671Z,21.80
2022-09-20T10:02:11.081Z,22.23
2022-09-20T10:04:50.443Z,22.67
2022-09-20T10:07:40.317Z,23.07
2022-09-20T10:10:41.605Z,23.50
2022-09-20T10:13:20.223Z,21.80
2022-09-20T10:16:16.138Z,18.93
2022-09-20T10:19:13.081Z,19.27
2022-09-20T10:22:05.574Z,19.50
2022-09-20T10:25:03.189Z,19.23
2022-09-20T10:27:58.166Z,16.27
2022-09-20T10:30:47.227Z,16.20
2022-09-20T10:33:47.517Z,17.43
2022-09-20T10:36:25.993Z,20.73
2022-09-20T10:39:22.550Z,19.45
2022-09-20T10:42:35.921Z,18.48
2022-09-20T10:45:44.023Z,15.10
2022-09-20T10:48:31.623Z,19.02
2022-09-20T10:51:13.191Z,18.30
2022-09-20T10:54:06.000Z,17.23
2022-09-20T10:56:35.778Z,17.30
2022-09-20T10:59:25.007Z,17.45
2022-09-20T11:02:29.862Z,16.48
2022-09-20T11:05:16.674Z,18.20
2022-09-20T11:08:03.512Z,20.10
2022-09-20T11:10:39.157Z,15.68
2022-09-20T11:13:20.520Z,17.17
2022-09-20T11:15:52.672Z,17.17
2022-09-20T11:18:29.436Z,15.13
2022-09-20T11:21:19.276Z,15.50
2022-09-20T11:24:05.497Z,18.20
2022-09-20T11:26:37.914Z,15.85
2022-09-20T11:29:40.277Z,17.95
2022-09-20T11:32:24.998Z,17.33
2022-09-20T11:34:57.034Z,17.85
2022-09-20T11:37:30.212Z,14.85
2022-09-20T11:40:03.604Z,17.60
2022-09-20T11:42:35.870Z,12.55
2022-09-20T11:45:04.014Z,16.05
2022-09-20T11:47:54.555Z,10.40
2022-09-20T11:50:44.358Z,11.60
2022-09-20T11:53:36.460Z,14.98
2022-09-20T11:56:22.812Z,11.98
2022-09-20T11:59:01.471Z,11.45
2022-09-20T12:01:35.277Z,12.57
2022-09-20T12:07:24.062Z,10.38
2022-09-20T12:10:04.102Z,10.50
2022-09-20T12:12:42.007Z,8.85
2022-09-20T12:15:39.285Z,11.43
2022-09-20T12:18:33.924Z,10.27
2022-09-20T12:21:17.932Z,9.57
2022-09-20T12:24:07.342Z,10.05
2022-09-20T12:26:42.686Z,9.77
2022-09-20T12:29:24.995Z,9.80
2022-09-20T12:31:55.685Z,9.23
2022-09-20T12:34:22.682Z,9.13
2022-09-20T12:36:57.725Z,11.20
2022-09-20T12:39:29.932Z,9.35
2022-09-20T12:42:28.327Z,8.52
2022-09-20T12:45:18.526Z,8.88
2022-09-20T12:47:54.999Z,9.20
2022-09-20T12:50:41.389Z,8.80
2022-09-20T12:53:17.070Z,9.95
2022-09-20T12:55:56.274Z,7.00
2022-09-20T12:58:55.257Z,7.65
2022-09-20T13:01:34.148Z,7.20
2022-09-20T13:04:38.374Z,6.15
2022-09-20T13:07:33.693Z,13.30
2022-09-20T13:10:07.020Z,6.03
2022-09-20T13:12:37.513Z,8.88
2022-09-20T13:15:06.087Z,4.90
2022-09-20T13:17:34.268Z,6.72
2022-09-20T13:20:02.951Z,6.20
2022-09-20T13:22:43.419Z,6.25
2022-09-20T13:25:20.398Z,6.20
2022-09-20T13:28:01.982Z,6.22
2022-09-20T13:30:34.276Z,6.80
2022-09-20T13:33:23.386Z,7.07
2022-09-20T13:35:57.019Z,5.22
2022-09-20T13:38:29.991Z,5.22
2022-09-20T13:41:06.543Z,5.70
2022-09-20T13:43:53.118Z,5.90
2022-09-20T13:46:32.918Z,6.85
2022-09-20T13:49:08.893Z,6.40
2022-09-20T13:51:36.117Z,11.30
2022-09-20T13:54:25.758Z,2.70
2022-09-20T13:56:53.982Z,6.28
2022-09-20T13:59:20.857Z,5.03
2022-09-20T14:01:54.500Z,7.03
2022-09-20T14:04:24.533Z,6.17
2022-09-20T14:06:53.525Z,5.63
2022-09-20T14:09:35.079Z,5.57
2022-09-20T14:12:05.771Z,4.47
2022-09-20T14:14:34.989Z,4.82
2022-09-20T14:17:05.568Z,9.85
2022-09-20T14:19:37.268Z,5.45
2022-09-20T14:22:05.218Z,5.15
2022-09-20T14:24:35.606Z,4.47
2022-09-20T14:27:22.805Z,3.85
2022-09-20T14:29:54.251Z,6.47
2022-09-20T14:32:21.069Z,5.50
2022-09-20T14:35:29.042Z,6.07
2022-09-20T14:37:59.944Z,6.32
2022-09-20T14:40:28.484Z,5.22
2022-09-20T14:42:58.504Z,6.20
2022-09-20T14:45:32.003Z,5.78
2022-09-20T14:48:11.047Z,7.05
2022-09-20T14:50:46.327Z,7.97
2022-09-20T14:53:18.883Z,6.80
2022-09-20T14:56:32.777Z,6.90
2022-09-20T14:59:05.537Z,7.85
2022-09-20T15:01:34.367Z,8.80
2022-09-20T15:04:09.918Z,7.53
2022-09-20T15:06:40.186Z,7.68
2022-09-20T15:09:07.163Z,10.45
2022-09-20T15:11:33.997Z,5.78
2022-09-20T15:14:00.758Z,6.28
2022-09-20T15:16:28.595Z,3.05
2022-09-20T15:18:56.363Z,3.00
2022-09-20T15:21:23.837Z,3.92
2022-09-20T15:23:50.741Z,3.70
2022-09-20T15:26:18.288Z,2.80
2022-09-20T15:28:45.102Z,2.80
2022-09-20T15:31:13.770Z,2.40
2022-09-20T15:33:41.665Z,3.03
2022-09-20T15:36:08.833Z,2.85
2022-09-20T15:38:35.700Z,2.22
2022-09-20T15:41:04.246Z,4.05
2022-09-20T15:43:31.214Z,2.58
2022-09-20T15:46:03.112Z,2.70
2022-09-20T15:48:30.941Z,3.20
2022-09-20T15:51:03.885Z,2.40
2022-09-20T15:53:57.764Z,2.97
2022-09-20T15:56:34.709Z,4.80
2022-09-20T15:59:06.473Z,2.80
2022-09-20T16:01:37.667Z,4.65
2022-09-20T16:04:10.240Z,2.55
2022-09-20T16:06:38.730Z,3.10
2022-09-20T16:09:06.889Z,5.28
2022-09-20T16:11:34.595Z,4.10
2022-09-20T16:14:05.464Z,3.92
2022-09-20T16:16:39.770Z,5.20
2022-09-20T16:19:20.412Z,4.50
2022-09-20T16:21:58.254Z,3.40
2022-09-20T16:24:28.765Z,4.07
2022-09-20T16:26:56.337Z,6.20
2022-09-20T16:29:25.200Z,3.35
2022-09-20T16:31:53.913Z,3.30
2022-09-20T16:34:45.648Z,2.80
2022-09-20T16:37:17.290Z,6.00
2022-09-20T16:39:44.475Z,5.38
2022-09-20T16:42:13.301Z,5.50
2022-09-20T16:44:43.024Z,4.28
2022-09-20T16:47:22.408Z,3.13
2022-09-20T16:49:50.670Z,3.35
2022-09-20T16:52:18.114Z,3.00
2022-09-20T16:54:45.784Z,3.15
2022-09-20T16:57:16.910Z,5.10
2022-09-20T16:59:44.424Z,3.25
2022-09-20T17:02:12.586Z,4.45
2022-09-20T17:04:39.556Z,4.80
2022-09-20T17:07:06.695Z,4.30
2022-09-20T17:09:33.581Z,4.35
2022-09-20T17:12:01.821Z,4.30
2022-09-20T17:14:30.149Z,5.68
2022-09-20T17:16:57.730Z,4.75
2022-09-20T17:19:26.968Z,7.03
2022-09-20T17:21:53.839Z,4.25
2022-09-20T17:24:22.762Z,8.60
2022-09-20T17:26:50.726Z,5.15
2022-09-20T17:29:21.605Z,5.38
2022-09-20T17:31:55.575Z,5.60
2022-09-20T17:34:25.383Z,4.05
2022-09-20T17:36:55.251Z,5.60
2022-09-20T17:39:22.287Z,5.53
2022-09-20T17:41:50.048Z,5.18
2022-09-20T17:44:17.249Z,5.50
2022-09-20T17:46:46.274Z,5.93
2022-09-20T17:49:16.710Z,5.38
2022-09-20T17:51:46.340Z,6.22
2022-09-20T17:54:14.493Z,6.00
2022-09-20T17:56:47.143Z,10.30
2022-09-20T17:59:16.337Z,9.27
2022-09-20T18:01:44.557Z,8.18
2022-09-20T18:04:13.110Z,8.45
2022-09-20T18:06:48.537Z,6.05
2022-09-20T18:09:20.486Z,7.63
2022-09-20T18:11:52.866Z,7.50
2022-09-20T18:14:23.318Z,6.40
2022-09-20T18:16:55.918Z,5.43
2022-09-20T18:19:23.117Z,5.15
2022-09-20T18:21:50.675Z,7.32
2022-09-20T18:24:17.907Z,5.07
2022-09-20T18:26:44.998Z,4.72
2022-09-20T18:29:14.775Z,4.38
2022-09-20T18:31:45.709Z,7.70
2022-09-20T18:34:19.522Z,6.32
2022-09-20T18:36:56.095Z,6.15
2022-09-20T18:39:25.986Z,7.65
2022-09-20T18:41:53.925Z,5.22
2022-09-20T18:44:22.884Z,6.45
2022-09-20T18:46:53.610Z,6.68
2022-09-20T18:49:22.011Z,8.25
2022-09-20T18:51:49.919Z,7.05
2022-09-20T18:54:20.967Z,6.93
2022-09-20T18:56:50.445Z,6.40
2022-09-20T18:59:22.877Z,7.73
2022-09-20T19:01:53.353Z,4.50
2022-09-20T19:04:49.670Z,5.15
2022-09-20T19:07:28.147Z,7.30
2022-09-20T19:10:06.906Z,6.20
2022-09-20T19:12:50.082Z,5.27
2022-09-20T19:15:36.487Z,5.60
2022-09-20T19:18:22.963Z,7.17
2022-09-20T19:21:09.448Z,6.67
2022-09-20T19:23:43.811Z,8.13
2022-09-20T19:26:22.114Z,7.97
2022-09-20T19:28:55.205Z,7.70
2022-09-20T19:31:27.846Z,8.40
2022-09-20T19:33:56.869Z,9.70
2022-09-20T19:36:32.331Z,8.60
2022-09-20T19:39:13.509Z,9.07
2022-09-20T19:41:54.989Z,8.33
2022-09-20T19:44:47.392Z,8.93
2022-09-20T19:47:23.845Z,8.50
2022-09-20T19:49:56.755Z,9.07
2022-09-20T19:52:23.983Z,10.73
2022-09-20T19:54:51.973Z,10.03
2022-09-20T19:57:22.500Z,12.80
2022-09-20T19:59:50.986Z,10.47
2022-09-20T20:02:18.595Z,10.20
2022-09-20T20:04:46.183Z,9.20
2022-09-20T20:07:22.279Z,8.33
2022-09-20T20:10:28.948Z,9.07
2022-09-20T20:13:34.846Z,12.27
2022-09-20T20:16:06.605Z,11.07
2022-09-20T20:18:41.644Z,10.13
2022-09-20T20:21:18.692Z,10.73
2022-09-20T20:24:33.453Z,10.00
2022-09-20T20:27:00.495Z,9.37
2022-09-20T20:29:27.375Z,8.60
2022-09-20T20:31:54.287Z,10.17
2022-09-20T20:34:21.319Z,10.83
2022-09-20T20:36:50.223Z,10.10
2022-09-20T20:39:17.865Z,11.93
2022-09-20T20:41:46.062Z,13.37
2022-09-20T20:44:13.089Z,12.70
2022-09-20T20:46:39.927Z,11.53
2022-09-20T20:49:06.726Z,11.00
2022-09-20T20:51:33.568Z,11.93
2022-09-20T20:54:00.411Z,11.20
2022-09-20T20:56:31.431Z,14.90
2022-09-20T20:59:02.200Z,11.13
2022-09-20T21:01:36.410Z,11.33
